sensor_id;sensor_type;location;lat;lon;timestamp;pressure;altitude;pressure_sealevel;temperature;humidity
12203;BME280;6164;42.178;24.622;2023-06-10T00:01:25;99110.13;;;18.12;100.00
12203;BME280;6164;42.178;24.622;2023-06-10T00:03:55;99110.44;;;18.15;100.00
12203;BME280;6164;42.178;24.622;2023-06-10T00:06:22;99096.75;;;18.12;100.00
12203;BME280;6164;42.178;24.622;2023-06-10T00:08:49;99096.97;;;18.10;100.00
12203;BME280;6164;42.178;24.622;2023-06-10T00:11:16;99104.28;;;18.03;100.00
12203;BME280;6164;42.178;24.622;2023-06-10T00:13:43;99106.50;;;18.06;100.00
12203;BME280;6164;42.178;24.622;2023-06-10T00:16:11;99107.41;;;18.00;100.00
12203;BME280;6164;42.178;24.622;2023-06-10T00:18:38;99099.63;;;17.99;100.00
12203;BME280;6164;42.178;24.622;2023-06-10T00:21:05;99101.72;;;17.97;100.00
12203;BME280;6164;42.178;24.622;2023-06-10T00:23:32;99097.38;;;17.96;100.00
12203;BME280;6164;42.178;24.622;2023-06-10T00:26:03;99100.50;;;17.93;100.00
12203;BME280;6164;42.178;24.622;2023-06-10T00:28:29;99077.25;;;17.82;100.00
12203;BME280;6164;42.178;24.622;2023-06-10T00:30:56;99096.81;;;17.94;100.00
12203;BME280;6164;42.178;24.622;2023-06-10T00:33:25;99100.06;;;17.96;100.00
12203;BME280;6164;42.178;24.622;2023-06-10T00:35:51;99098.22;;;17.96;100.00
12203;BME280;6164;42.178;24.622;2023-06-10T00:38:18;99100.06;;;17.96;100.00
12203;BME280;6164;42.178;24.622;2023-06-10T00:40:45;99100.28;;;17.94;100.00
12203;BME280;6164;42.178;24.622;2023-06-10T00:43:12;99099.50;;;17.94;100.00
12203;BME280;6164;42.178;24.622;2023-06-10T00:45:38;99096.72;;;18.00;100.00
12203;BME280;6164;42.178;24.622;2023-06-10T00:48:05;99093.81;;;18.02;100.00
12203;BME280;6164;42.178;24.622;2023-06-10T00:50:33;99093.38;;;18.05;100.00
12203;BME280;6164;42.178;24.622;2023-06-10T00:53:04;99086.13;;;17.94;100.00
12203;BME280;6164;42.178;24.622;2023-06-10T00:55:31;99102.06;;;18.00;100.00
12203;BME280;6164;42.178;24.622;2023-06-10T00:57:59;99099.72;;;18.04;100.00
12203;BME280;6164;42.178;24.622;2023-06-10T01:00:26;99098.25;;;18.08;100.00
12203;BME280;6164;42.178;24.622;2023-06-10T01:02:53;99102.41;;;18.04;100.00
12203;BME280;6164;42.178;24.622;2023-06-10T01:05:20;99080.53;;;17.84;100.00
12203;BME280;6164;42.178;24.622;2023-06-10T01:07:52;99103.06;;;17.88;100.00
12203;BME280;6164;42.178;24.622;2023-06-10T01:10:25;99105.91;;;17.75;100.00
12203;BME280;6164;42.178;24.622;2023-06-10T01:12:59;99097.84;;;17.63;100.00
12203;BME280;6164;42.178;24.622;2023-06-10T01:15:28;99102.28;;;17.51;100.00
12203;BME280;6164;42.178;24.622;2023-06-10T01:17:57;99113.03;;;17.45;100.00
12203;BME280;6164;42.178;24.622;2023-06-10T01:20:24;99107.63;;;17.33;100.00
12203;BME280;6164;42.178;24.622;2023-06-10T01:22:53;99108.75;;;17.26;100.00
12203;BME280;6164;42.178;24.622;2023-06-10T01:25:21;99117.44;;;17.21;100.00
12203;BME280;6164;42.178;24.622;2023-06-10T01:27:54;99098.97;;;17.20;100.00
12203;BME280;6164;42.178;24.622;2023-06-10T01:30:27;99116.44;;;17.16;100.00
12203;BME280;6164;42.178;24.622;2023-06-10T01:33:02;99110.44;;;17.20;100.00
12203;BME280;6164;42.178;24.622;2023-06-10T01:35:30;99105.03;;;17.27;100.00
12203;BME280;6164;42.178;24.622;2023-06-10T01:38:00;99099.69;;;17.27;100.00
12203;BME280;6164;42.178;24.622;2023-06-10T01:40:28;99105.69;;;17.22;100.00
12203;BME280;6164;42.178;24.622;2023-06-10T01:42:56;99106.81;;;17.33;100.00
12203;BME280;6164;42.178;24.622;2023-06-10T01:45:22;99107.13;;;17.43;100.00
12203;BME280;6164;42.178;24.622;2023-06-10T01:47:49;99092.81;;;17.37;100.00
12203;BME280;6164;42.178;24.622;2023-06-10T01:50:16;99098.69;;;17.46;100.00
12203;BME280;6164;42.178;24.622;2023-06-10T01:52:42;99092.44;;;17.52;100.00
12203;BME280;6164;42.178;24.622;2023-06-10T01:55:11;99097.00;;;17.63;100.00
12203;BME280;6164;42.178;24.622;2023-06-10T01:57:37;99098.56;;;17.70;100.00
12203;BME280;6164;42.178;24.622;2023-06-10T02:00:05;99098.94;;;17.74;100.00
12203;BME280;6164;42.178;24.622;2023-06-10T02:02:33;99104.28;;;17.74;100.00
12203;BME280;6164;42.178;24.622;2023-06-10T02:04:59;99102.63;;;17.73;100.00
12203;BME280;6164;42.178;24.622;2023-06-10T02:07:27;99094.94;;;17.65;100.00
12203;BME280;6164;42.178;24.622;2023-06-10T02:09:53;99108.66;;;17.68;100.00
12203;BME280;6164;42.178;24.622;2023-06-10T02:12:21;99106.94;;;17.74;100.00
12203;BME280;6164;42.178;24.622;2023-06-10T02:14:51;99105.81;;;17.81;100.00
12203;BME280;6164;42.178;24.622;2023-06-10T02:17:18;99107.94;;;17.91;100.00
12203;BME280;6164;42.178;24.622;2023-06-10T02:19:44;99099.63;;;17.99;100.00
12203;BME280;6164;42.178;24.622;2023-06-10T02:22:20;99104.53;;;18.13;100.00
12203;BME280;6164;42.178;24.622;2023-06-10T02:24:47;99099.47;;;18.23;100.00
12203;BME280;6164;42.178;24.622;2023-06-10T02:27:14;99104.47;;;18.31;100.00
12203;BME280;6164;42.178;24.622;2023-06-10T02:29:42;99101.56;;;18.33;100.00
12203;BME280;6164;42.178;24.622;2023-06-10T02:32:10;99103.78;;;18.36;100.00
12203;BME280;6164;42.178;24.622;2023-06-10T02:34:36;99106.97;;;18.45;100.00
12203;BME280;6164;42.178;24.622;2023-06-10T02:37:03;99106.63;;;18.53;100.00
12203;BME280;6164;42.178;24.622;2023-06-10T02:39:30;99105.22;;;18.62;100.00
12203;BME280;6164;42.178;24.622;2023-06-10T02:41:57;99106.75;;;18.69;100.00
12203;BME280;6164;42.178;24.622;2023-06-10T02:44:24;99106.88;;;18.74;100.00
12203;BME280;6164;42.178;24.622;2023-06-10T02:46:52;99108.50;;;18.75;100.00
12203;BME280;6164;42.178;24.622;2023-06-10T02:49:18;99113.25;;;18.73;100.00
12203;BME280;6164;42.178;24.622;2023-06-10T02:51:45;99112.44;;;18.73;100.00
12203;BME280;6164;42.178;24.622;2023-06-10T02:54:12;99105.81;;;18.75;100.00
12203;BME280;6164;42.178;24.622;2023-06-10T02:56:39;99101.53;;;18.74;100.00
12203;BME280;6164;42.178;24.622;2023-06-10T02:59:07;99106.41;;;18.77;100.00
12203;BME280;6164;42.178;24.622;2023-06-10T03:01:33;99111.75;;;18.77;100.00
12203;BME280;6164;42.178;24.622;2023-06-10T03:04:03;99117.69;;;18.79;100.00
12203;BME280;6164;42.178;24.622;2023-06-10T03:06:30;99116.03;;;18.67;100.00
12203;BME280;6164;42.178;24.622;2023-06-10T03:08:59;99098.84;;;18.63;100.00
12203;BME280;6164;42.178;24.622;2023-06-10T03:11:26;99113.38;;;18.78;100.00
12203;BME280;6164;42.178;24.622;2023-06-10T03:13:53;99098.72;;;18.69;100.00
12203;BME280;6164;42.178;24.622;2023-06-10T03:16:20;99113.47;;;18.83;100.00
12203;BME280;6164;42.178;24.622;2023-06-10T03:18:49;99122.09;;;18.85;100.00
12203;BME280;6164;42.178;24.622;2023-06-10T03:21:17;99124.28;;;18.88;100.00
12203;BME280;6164;42.178;24.622;2023-06-10T03:23:44;99121.16;;;18.91;100.00
12203;BME280;6164;42.178;24.622;2023-06-10T03:26:11;99121.38;;;18.90;100.00
12203;BME280;6164;42.178;24.622;2023-06-10T03:28:38;99116.88;;;18.90;100.00
12203;BME280;6164;42.178;24.622;2023-06-10T03:31:05;99120.00;;;18.87;100.00
12203;BME280;6164;42.178;24.622;2023-06-10T03:33:32;99112.34;;;18.91;100.00
12203;BME280;6164;42.178;24.622;2023-06-10T03:35:59;99114.66;;;18.99;100.00
12203;BME280;6164;42.178;24.622;2023-06-10T03:38:27;99122.78;;;19.04;100.00
12203;BME280;6164;42.178;24.622;2023-06-10T03:40:53;99121.97;;;19.03;100.00
12203;BME280;6164;42.178;24.622;2023-06-10T03:43:20;99120.34;;;19.02;100.00
12203;BME280;6164;42.178;24.622;2023-06-10T03:45:47;99118.34;;;18.98;100.00
12203;BME280;6164;42.178;24.622;2023-06-10T03:48:14;99120.34;;;19.02;100.00
12203;BME280;6164;42.178;24.622;2023-06-10T03:50:42;99129.19;;;19.03;100.00
12203;BME280;6164;42.178;24.622;2023-06-10T03:53:08;99126.06;;;19.06;100.00
12203;BME280;6164;42.178;24.622;2023-06-10T03:55:36;99122.56;;;19.05;100.00
12203;BME280;6164;42.178;24.622;2023-06-10T03:58:03;99116.97;;;19.07;100.00
12203;BME280;6164;42.178;24.622;2023-06-10T04:00:30;99118.81;;;19.06;100.00
12203;BME280;6164;42.178;24.622;2023-06-10T04:02:58;99120.59;;;19.12;100.00
12203;BME280;6164;42.178;24.622;2023-06-10T04:05:25;99112.91;;;19.16;100.00
12203;BME280;6164;42.178;24.622;2023-06-10T04:07:54;99114.88;;;19.20;100.00
12203;BME280;6164;42.178;24.622;2023-06-10T04:10:22;99113.56;;;19.23;100.00
12203;BME280;6164;42.178;24.622;2023-06-10T04:12:50;99118.69;;;19.24;100.00
12203;BME280;6164;42.178;24.622;2023-06-10T04:15:17;99125.69;;;19.25;100.00
12203;BME280;6164;42.178;24.622;2023-06-10T04:17:44;99125.22;;;19.28;100.00
12203;BME280;6164;42.178;24.622;2023-06-10T04:20:11;99125.81;;;19.30;100.00
12203;BME280;6164;42.178;24.622;2023-06-10T04:22:38;99120.81;;;19.34;100.00
12203;BME280;6164;42.178;24.622;2023-06-10T04:25:05;99112.56;;;19.35;100.00
12203;BME280;6164;42.178;24.622;2023-06-10T04:27:33;99112.88;;;19.39;100.00
12203;BME280;6164;42.178;24.622;2023-06-10T04:30:01;99123.91;;;19.42;100.00
12203;BME280;6164;42.178;24.622;2023-06-10T04:32:27;99115.88;;;19.42;100.00
12203;BME280;6164;42.178;24.622;2023-06-10T04:34:54;99120.06;;;19.50;100.00
12203;BME280;6164;42.178;24.622;2023-06-10T04:37:21;99127.16;;;19.56;100.00
12203;BME280;6164;42.178;24.622;2023-06-10T04:39:48;99122.72;;;19.61;100.00
12203;BME280;6164;42.178;24.622;2023-06-10T04:42:15;99122.25;;;19.64;100.00
12203;BME280;6164;42.178;24.622;2023-06-10T04:44:41;99125.50;;;19.67;100.00
12203;BME280;6164;42.178;24.622;2023-06-10T04:47:10;99119.19;;;19.73;100.00
12203;BME280;6164;42.178;24.622;2023-06-10T04:49:36;99119.75;;;19.75;100.00
12203;BME280;6164;42.178;24.622;2023-06-10T04:52:04;99121.13;;;19.77;100.00
12203;BME280;6164;42.178;24.622;2023-06-10T04:54:30;99117.44;;;19.78;100.00
12203;BME280;6164;42.178;24.622;2023-06-10T04:56:57;99116.94;;;19.81;100.00
12203;BME280;6164;42.178;24.622;2023-06-10T04:59:24;99115.19;;;19.87;100.00
12203;BME280;6164;42.178;24.622;2023-06-10T05:01:51;99120.72;;;19.97;100.00
12203;BME280;6164;42.178;24.622;2023-06-10T05:04:19;99119.28;;;20.06;100.00
12203;BME280;6164;42.178;24.622;2023-06-10T05:06:46;99118.22;;;20.07;100.00
12203;BME280;6164;42.178;24.622;2023-06-10T05:09:12;99124.13;;;19.92;100.00
12203;BME280;6164;42.178;24.622;2023-06-10T05:11:39;99123.97;;;19.99;100.00
12203;BME280;6164;42.178;24.622;2023-06-10T05:14:06;99119.63;;;20.09;100.00
12203;BME280;6164;42.178;24.622;2023-06-10T05:16:32;99109.34;;;20.18;100.00
12203;BME280;6164;42.178;24.622;2023-06-10T05:18:59;99112.16;;;20.11;100.00
12203;BME280;6164;42.178;24.622;2023-06-10T05:21:27;99111.56;;;20.21;100.00
12203;BME280;6164;42.178;24.622;2023-06-10T05:23:54;99115.19;;;20.31;100.00
12203;BME280;6164;42.178;24.622;2023-06-10T05:26:21;99120.56;;;20.31;100.00
12203;BME280;6164;42.178;24.622;2023-06-10T05:28:48;99115.84;;;20.22;100.00
12203;BME280;6164;42.178;24.622;2023-06-10T05:31:14;99117.53;;;20.11;100.00
12203;BME280;6164;42.178;24.622;2023-06-10T05:33:41;99122.88;;;20.11;100.00
12203;BME280;6164;42.178;24.622;2023-06-10T05:36:08;99124.75;;;20.11;100.00
12203;BME280;6164;42.178;24.622;2023-06-10T05:38:36;99124.75;;;20.11;100.00
12203;BME280;6164;42.178;24.622;2023-06-10T05:41:03;99130.16;;;19.99;100.00
12203;BME280;6164;42.178;24.622;2023-06-10T05:43:29;99133.78;;;19.93;100.00
12203;BME280;6164;42.178;24.622;2023-06-10T05:45:56;99130.63;;;19.68;100.00
12203;BME280;6164;42.178;24.622;2023-06-10T05:48:23;99142.16;;;19.69;100.00
12203;BME280;6164;42.178;24.622;2023-06-10T05:50:50;99142.72;;;19.71;100.00
12203;BME280;6164;42.178;24.622;2023-06-10T05:53:16;99143.28;;;19.73;100.00
12203;BME280;6164;42.178;24.622;2023-06-10T05:55:45;99137.66;;;19.86;100.00
12203;BME280;6164;42.178;24.622;2023-06-10T05:58:13;99132.16;;;19.92;100.00
12203;BME280;6164;42.178;24.622;2023-06-10T06:00:40;99134.53;;;20.05;100.00
12203;BME280;6164;42.178;24.622;2023-06-10T06:03:07;99117.41;;;20.18;100.00
12203;BME280;6164;42.178;24.622;2023-06-10T06:05:34;99126.59;;;20.38;100.00
12203;BME280;6164;42.178;24.622;2023-06-10T06:08:03;99128.44;;;20.38;100.00
12203;BME280;6164;42.178;24.622;2023-06-10T06:10:30;99131.72;;;20.56;100.00
12203;BME280;6164;42.178;24.622;2023-06-10T06:12:58;99140.25;;;20.70;100.00
12203;BME280;6164;42.178;24.622;2023-06-10T06:15:24;99130.69;;;20.74;100.00
12203;BME280;6164;42.178;24.622;2023-06-10T06:17:51;99129.94;;;20.95;100.00
12203;BME280;6164;42.178;24.622;2023-06-10T06:20:18;99124.72;;;21.22;100.00
12203;BME280;6164;42.178;24.622;2023-06-10T06:22:45;99121.03;;;21.28;100.00
12203;BME280;6164;42.178;24.622;2023-06-10T06:25:12;99119.47;;;21.53;100.00
12203;BME280;6164;42.178;24.622;2023-06-10T06:27:39;99121.53;;;21.68;100.00
12203;BME280;6164;42.178;24.622;2023-06-10T06:30:08;99103.41;;;21.80;100.00
12203;BME280;6164;42.178;24.622;2023-06-10T06:32:35;99111.13;;;21.98;100.00
12203;BME280;6164;42.178;24.622;2023-06-10T06:35:02;99109.38;;;22.08;100.00
12203;BME280;6164;42.178;24.622;2023-06-10T06:37:30;99109.78;;;22.22;100.00
12203;BME280;6164;42.178;24.622;2023-06-10T06:39:57;99103.72;;;22.37;100.00
12203;BME280;6164;42.178;24.622;2023-06-10T06:42:24;99104.19;;;22.55;100.00
12203;BME280;6164;42.178;24.622;2023-06-10T06:44:51;99092.97;;;22.68;100.00
12203;BME280;6164;42.178;24.622;2023-06-10T06:47:19;99092.00;;;22.84;100.00
12203;BME280;6164;42.178;24.622;2023-06-10T06:49:46;99091.59;;;22.66;100.00
12203;BME280;6164;42.178;24.622;2023-06-10T06:52:13;99091.34;;;22.67;100.00
12203;BME280;6164;42.178;24.622;2023-06-10T06:54:40;99074.06;;;22.58;100.00
12203;BME280;6164;42.178;24.622;2023-06-10T06:57:07;99083.44;;;22.92;100.00
12203;BME280;6164;42.178;24.622;2023-06-10T06:59:34;99076.56;;;22.70;100.00
12203;BME280;6164;42.178;24.622;2023-06-10T07:02:00;99075.34;;;22.87;100.00
12203;BME280;6164;42.178;24.622;2023-06-10T07:04:28;99084.38;;;23.13;100.00
12203;BME280;6164;42.178;24.622;2023-06-10T07:06:56;99077.50;;;23.32;100.00
12203;BME280;6164;42.178;24.622;2023-06-10T07:09:23;99071.88;;;23.38;100.00
12203;BME280;6164;42.178;24.622;2023-06-10T07:11:50;99073.53;;;23.50;100.00
12203;BME280;6164;42.178;24.622;2023-06-10T07:14:17;99073.56;;;23.65;100.00
12203;BME280;6164;42.178;24.622;2023-06-10T07:16:43;99067.16;;;23.86;100.00
12203;BME280;6164;42.178;24.622;2023-06-10T07:19:11;99067.75;;;24.03;100.00
12203;BME280;6164;42.178;24.622;2023-06-10T07:21:39;99063.72;;;24.10;100.00
12203;BME280;6164;42.178;24.622;2023-06-10T07:24:06;99068.06;;;24.31;100.00
12203;BME280;6164;42.178;24.622;2023-06-10T07:26:33;99066.44;;;24.45;100.00
12203;BME280;6164;42.178;24.622;2023-06-10T07:29:00;99070.72;;;24.51;100.00
12203;BME280;6164;42.178;24.622;2023-06-10T07:31:26;99063.47;;;24.37;100.00
12203;BME280;6164;42.178;24.622;2023-06-10T07:33:53;99064.56;;;24.31;100.00
12203;BME280;6164;42.178;24.622;2023-06-10T07:36:20;99068.34;;;24.20;100.00
12203;BME280;6164;42.178;24.622;2023-06-10T07:38:48;99066.97;;;24.17;100.00
12203;BME280;6164;42.178;24.622;2023-06-10T07:41:15;99058.06;;;24.17;100.00
12203;BME280;6164;42.178;24.622;2023-06-10T07:43:43;99059.41;;;24.19;100.00
12203;BME280;6164;42.178;24.622;2023-06-10T07:46:09;99062.66;;;24.41;100.00
12203;BME280;6164;42.178;24.622;2023-06-10T07:48:36;99069.13;;;24.65;100.00
12203;BME280;6164;42.178;24.622;2023-06-10T07:51:03;99069.16;;;24.76;100.00
12203;BME280;6164;42.178;24.622;2023-06-10T07:53:30;99069.63;;;24.93;100.00
12203;BME280;6164;42.178;24.622;2023-06-10T07:55:58;99072.31;;;25.03;100.00
12203;BME280;6164;42.178;24.622;2023-06-10T07:58:24;99072.31;;;24.98;100.00
12203;BME280;6164;42.178;24.622;2023-06-10T08:00:51;99063.16;;;24.99;97.80
12203;BME280;6164;42.178;24.622;2023-06-10T08:03:18;99064.69;;;25.20;98.05
12203;BME280;6164;42.178;24.622;2023-06-10T08:05:44;99057.13;;;25.37;98.83
12203;BME280;6164;42.178;24.622;2023-06-10T08:08:12;99059.69;;;25.62;98.90
12203;BME280;6164;42.178;24.622;2023-06-10T08:10:39;99061.22;;;25.78;96.72
12203;BME280;6164;42.178;24.622;2023-06-10T08:13:07;99076.72;;;25.62;90.28
12203;BME280;6164;42.178;24.622;2023-06-10T08:15:34;99064.00;;;25.63;91.99
12203;BME280;6164;42.178;24.622;2023-06-10T08:18:01;99059.94;;;25.65;93.86
12203;BME280;6164;42.178;24.622;2023-06-10T08:20:27;99061.22;;;25.78;92.33
12203;BME280;6164;42.178;24.622;2023-06-10T08:22:54;99058.25;;;25.79;92.67
12203;BME280;6164;42.178;24.622;2023-06-10T08:25:21;99065.13;;;26.01;91.36
12203;BME280;6164;42.178;24.622;2023-06-10T08:27:47;99070.97;;;26.23;86.62
12203;BME280;6164;42.178;24.622;2023-06-10T08:30:17;99060.88;;;26.33;88.49
12203;BME280;6164;42.178;24.622;2023-06-10T08:32:44;99065.31;;;26.19;86.21
12203;BME280;6164;42.178;24.622;2023-06-10T08:35:11;99060.28;;;26.36;86.89
12203;BME280;6164;42.178;24.622;2023-06-10T08:37:37;99070.28;;;26.41;84.95
12203;BME280;6164;42.178;24.622;2023-06-10T08:40:05;99043.13;;;26.17;82.14
12203;BME280;6164;42.178;24.622;2023-06-10T08:42:34;99075.81;;;26.26;80.02
12203;BME280;6164;42.178;24.622;2023-06-10T08:45:07;99069.09;;;26.18;79.84
12203;BME280;6164;42.178;24.622;2023-06-10T08:47:39;99057.75;;;26.16;83.86
12203;BME280;6164;42.178;24.622;2023-06-10T08:50:08;99058.50;;;26.22;83.97
12203;BME280;6164;42.178;24.622;2023-06-10T08:52:43;99053.09;;;26.22;83.15
12203;BME280;6164;42.178;24.622;2023-06-10T08:55:11;99037.06;;;26.30;83.11
12203;BME280;6164;42.178;24.622;2023-06-10T08:57:40;99064.25;;;26.49;77.30
12203;BME280;6164;42.178;24.622;2023-06-10T09:00:08;99055.22;;;26.58;77.33
12203;BME280;6164;42.178;24.622;2023-06-10T09:02:35;99051.94;;;26.66;75.95
12203;BME280;6164;42.178;24.622;2023-06-10T09:05:05;99038.88;;;26.73;75.73
12203;BME280;6164;42.178;24.622;2023-06-10T09:07:32;99028.50;;;26.80;81.02
12203;BME280;6164;42.178;24.622;2023-06-10T09:10:01;99024.72;;;26.81;83.15
12203;BME280;6164;42.178;24.622;2023-06-10T09:12:29;99041.66;;;26.63;83.61
12203;BME280;6164;42.178;24.622;2023-06-10T09:14:56;99033.63;;;26.53;86.01
12203;BME280;6164;42.178;24.622;2023-06-10T09:17:23;99040.59;;;26.59;86.91
12203;BME280;6164;42.178;24.622;2023-06-10T09:19:50;99039.84;;;26.54;87.58
12203;BME280;6164;42.178;24.622;2023-06-10T09:22:20;99040.72;;;26.44;89.37
12203;BME280;6164;42.178;24.622;2023-06-10T09:24:47;99041.50;;;26.50;89.01
12203;BME280;6164;42.178;24.622;2023-06-10T09:27:14;99047.72;;;26.50;87.41
12203;BME280;6164;42.178;24.622;2023-06-10T09:29:47;99019.66;;;26.41;88.70
12203;BME280;6164;42.178;24.622;2023-06-10T09:32:17;99041.28;;;26.75;87.80
12203;BME280;6164;42.178;24.622;2023-06-10T09:34:45;99033.97;;;26.99;84.92
12203;BME280;6164;42.178;24.622;2023-06-10T09:37:12;99044.66;;;27.14;84.27
12203;BME280;6164;42.178;24.622;2023-06-10T09:39:40;99038.19;;;27.10;86.03
12203;BME280;6164;42.178;24.622;2023-06-10T09:42:16;99031.72;;;27.53;84.31
12203;BME280;6164;42.178;24.622;2023-06-10T09:44:49;99050.34;;;27.78;80.25
12203;BME280;6164;42.178;24.622;2023-06-10T09:47:20;99040.81;;;27.62;78.48
12203;BME280;6164;42.178;24.622;2023-06-10T09:49:47;99044.25;;;27.68;77.95
12203;BME280;6164;42.178;24.622;2023-06-10T09:52:21;99049.69;;;27.68;76.76
12203;BME280;6164;42.178;24.622;2023-06-10T09:54:50;99044.13;;;27.78;75.97
12203;BME280;6164;42.178;24.622;2023-06-10T09:57:17;99051.00;;;27.70;71.67
12203;BME280;6164;42.178;24.622;2023-06-10T09:59:45;99045.41;;;28.04;72.91
12203;BME280;6164;42.178;24.622;2023-06-10T10:02:13;99055.88;;;27.92;69.37
12203;BME280;6164;42.178;24.622;2023-06-10T10:04:40;99056.88;;;27.77;68.33
12203;BME280;6164;42.178;24.622;2023-06-10T10:07:07;99045.50;;;27.57;69.24
12203;BME280;6164;42.178;24.622;2023-06-10T10:09:35;99043.91;;;27.08;69.93
12203;BME280;6164;42.178;24.622;2023-06-10T10:12:04;99040.16;;;27.04;70.78
12203;BME280;6164;42.178;24.622;2023-06-10T10:14:36;99032.72;;;26.91;71.40
12203;BME280;6164;42.178;24.622;2023-06-10T10:17:04;99035.16;;;26.93;71.90
12203;BME280;6164;42.178;24.622;2023-06-10T10:19:37;99030.53;;;26.93;72.63
12203;BME280;6164;42.178;24.622;2023-06-10T10:22:08;99030.69;;;27.02;73.68
12203;BME280;6164;42.178;24.622;2023-06-10T10:24:39;99034.44;;;26.82;72.43
12203;BME280;6164;42.178;24.622;2023-06-10T10:27:13;99041.19;;;26.85;73.83
12203;BME280;6164;42.178;24.622;2023-06-10T10:29:46;99032.88;;;26.76;73.59
12203;BME280;6164;42.178;24.622;2023-06-10T10:32:18;99021.00;;;26.72;74.27
12203;BME280;6164;42.178;24.622;2023-06-10T10:34:50;99025.38;;;26.92;74.31
12203;BME280;6164;42.178;24.622;2023-06-10T10:37:19;99023.03;;;27.09;74.44
12203;BME280;6164;42.178;24.622;2023-06-10T10:39:47;99026.84;;;27.08;71.78
12203;BME280;6164;42.178;24.622;2023-06-10T10:42:18;99025.16;;;27.12;73.14
12203;BME280;6164;42.178;24.622;2023-06-10T10:44:46;99023.66;;;27.25;72.23
12203;BME280;6164;42.178;24.622;2023-06-10T10:47:13;99021.28;;;27.42;71.89
12203;BME280;6164;42.178;24.622;2023-06-10T10:49:43;99012.88;;;27.62;71.50
12203;BME280;6164;42.178;24.622;2023-06-10T10:52:11;99016.13;;;27.82;71.30
12203;BME280;6164;42.178;24.622;2023-06-10T10:54:43;99003.88;;;27.85;71.70
12203;BME280;6164;42.178;24.622;2023-06-10T10:57:11;99021.13;;;27.94;70.85
12203;BME280;6164;42.178;24.622;2023-06-10T10:59:51;99027.34;;;27.94;70.63
12203;BME280;6164;42.178;24.622;2023-06-10T11:02:37;99020.09;;;27.90;70.07
12203;BME280;6164;42.178;24.622;2023-06-10T11:05:09;99012.16;;;27.75;69.32
12203;BME280;6164;42.178;24.622;2023-06-10T11:07:36;98990.44;;;27.56;71.21
12203;BME280;6164;42.178;24.622;2023-06-10T11:10:06;99000.00;;;27.54;71.69
12203;BME280;6164;42.178;24.622;2023-06-10T11:12:41;99005.78;;;27.47;71.08
12203;BME280;6164;42.178;24.622;2023-06-10T11:15:09;99004.09;;;27.51;71.85
12203;BME280;6164;42.178;24.622;2023-06-10T11:17:36;99005.50;;;27.67;69.85
12203;BME280;6164;42.178;24.622;2023-06-10T11:20:03;99001.59;;;27.55;67.88
12203;BME280;6164;42.178;24.622;2023-06-10T11:22:58;99003.50;;;27.73;67.13
12203;BME280;6164;42.178;24.622;2023-06-10T11:25:38;99002.72;;;27.91;66.92
12203;BME280;6164;42.178;24.622;2023-06-10T11:28:17;98982.16;;;27.85;67.13
12203;BME280;6164;42.178;24.622;2023-06-10T11:30:46;98987.28;;;28.23;68.35
12203;BME280;6164;42.178;24.622;2023-06-10T11:33:14;98996.31;;;28.51;66.10
12203;BME280;6164;42.178;24.622;2023-06-10T11:35:42;98994.22;;;28.75;65.48
12203;BME280;6164;42.178;24.622;2023-06-10T11:38:09;99001.28;;;28.90;62.38
12203;BME280;6164;42.178;24.622;2023-06-10T11:40:36;98992.25;;;29.08;63.66
12203;BME280;6164;42.178;24.622;2023-06-10T11:43:04;98996.84;;;29.34;62.21
12203;BME280;6164;42.178;24.622;2023-06-10T11:45:30;98996.63;;;29.44;62.03
12203;BME280;6164;42.178;24.622;2023-06-10T11:47:59;98991.41;;;29.84;60.68
12203;BME280;6164;42.178;24.622;2023-06-10T11:50:30;98997.44;;;30.16;59.14
12203;BME280;6164;42.178;24.622;2023-06-10T11:52:57;99007.75;;;30.06;56.95
12203;BME280;6164;42.178;24.622;2023-06-10T11:55:25;99009.53;;;30.10;55.88
12203;BME280;6164;42.178;24.622;2023-06-10T11:57:51;99005.41;;;29.91;56.89
12203;BME280;6164;42.178;24.622;2023-06-10T12:00:23;99007.16;;;29.87;56.20
12203;BME280;6164;42.178;24.622;2023-06-10T12:02:55;98990.25;;;29.49;57.20
12203;BME280;6164;42.178;24.622;2023-06-10T12:05:24;98991.28;;;29.67;56.79
12203;BME280;6164;42.178;24.622;2023-06-10T12:08:08;98984.50;;;29.64;57.41
12203;BME280;6164;42.178;24.622;2023-06-10T12:10:39;98984.63;;;29.95;57.34
12203;BME280;6164;42.178;24.622;2023-06-10T12:13:06;98988.31;;;29.99;55.26
12203;BME280;6164;42.178;24.622;2023-06-10T12:15:33;98980.41;;;29.89;56.67
12203;BME280;6164;42.178;24.622;2023-06-10T12:18:00;98940.75;;;29.74;56.15
12203;BME280;6164;42.178;24.622;2023-06-10T12:20:30;98976.69;;;30.07;55.60
12203;BME280;6164;42.178;24.622;2023-06-10T12:22:58;98986.31;;;30.26;55.08
12203;BME280;6164;42.178;24.622;2023-06-10T12:25:25;98986.56;;;30.69;53.97
12203;BME280;6164;42.178;24.622;2023-06-10T12:27:53;98993.50;;;30.53;53.29
12203;BME280;6164;42.178;24.622;2023-06-10T12:30:21;98992.84;;;30.47;53.58
12203;BME280;6164;42.178;24.622;2023-06-10T12:32:48;98986.41;;;30.21;52.86
12203;BME280;6164;42.178;24.622;2023-06-10T12:35:17;98964.44;;;30.40;54.23
12203;BME280;6164;42.178;24.622;2023-06-10T12:37:54;98964.16;;;30.50;53.06
12203;BME280;6164;42.178;24.622;2023-06-10T12:40:26;98952.38;;;30.94;55.76
12203;BME280;6164;42.178;24.622;2023-06-10T12:42:56;98973.06;;;31.03;52.22
12203;BME280;6164;42.178;24.622;2023-06-10T12:45:27;98973.59;;;31.14;51.65
12203;BME280;6164;42.178;24.622;2023-06-10T12:48:04;98948.34;;;30.91;51.98
12203;BME280;6164;42.178;24.622;2023-06-10T12:50:32;98925.66;;;31.30;53.39
12203;BME280;6164;42.178;24.622;2023-06-10T12:53:03;98952.19;;;31.46;52.50
12203;BME280;6164;42.178;24.622;2023-06-10T12:55:30;98955.06;;;31.75;51.43
12203;BME280;6164;42.178;24.622;2023-06-10T12:57:56;98965.53;;;31.99;50.33